sensor_id;sensor_type;location;lat;lon;timestamp;temperature;humidity
15819;DHT22;8010;53.986;12.106;2022-07-23T00:01:35;14.10;99.90
15819;DHT22;8010;53.986;12.106;2022-07-23T00:04:00;14.10;99.90
15819;DHT22;8010;53.986;12.106;2022-07-23T00:06:26;14.10;99.90
15819;DHT22;8010;53.986;12.106;2022-07-23T00:08:52;14.10;99.90
15819;DHT22;8010;53.986;12.106;2022-07-23T00:11:17;14.10;99.90
15819;DHT22;8010;53.986;12.106;2022-07-23T00:13:43;14.20;99.90
15819;DHT22;8010;53.986;12.106;2022-07-23T00:16:09;14.20;99.90
15819;DHT22;8010;53.986;12.106;2022-07-23T00:18:35;14.20;99.90
15819;DHT22;8010;53.986;12.106;2022-07-23T00:21:00;14.20;99.90
15819;DHT22;8010;53.986;12.106;2022-07-23T00:23:26;14.30;99.90
15819;DHT22;8010;53.986;12.106;2022-07-23T00:25:53;14.30;99.90
15819;DHT22;8010;53.986;12.106;2022-07-23T00:28:19;14.40;99.90
15819;DHT22;8010;53.986;12.106;2022-07-23T00:30:45;14.30;99.90
15819;DHT22;8010;53.986;12.106;2022-07-23T00:33:10;14.30;99.90
15819;DHT22;8010;53.986;12.106;2022-07-23T00:35:38;14.30;99.90
15819;DHT22;8010;53.986;12.106;2022-07-23T00:38:06;14.40;99.90
15819;DHT22;8010;53.986;12.106;2022-07-23T00:40:32;14.40;99.90
15819;DHT22;8010;53.986;12.106;2022-07-23T00:42:58;14.40;99.90
15819;DHT22;8010;53.986;12.106;2022-07-23T00:45:24;14.40;99.90
15819;DHT22;8010;53.986;12.106;2022-07-23T00:47:50;14.40;99.90
15819;DHT22;8010;53.986;12.106;2022-07-23T00:50:16;14.40;99.90
15819;DHT22;8010;53.986;12.106;2022-07-23T00:52:41;14.40;99.90
15819;DHT22;8010;53.986;12.106;2022-07-23T00:55:09;14.50;99.90
15819;DHT22;8010;53.986;12.106;2022-07-23T00:57:35;14.50;99.90
15819;DHT22;8010;53.986;12.106;2022-07-23T01:00:03;14.50;99.90
15819;DHT22;8010;53.986;12.106;2022-07-23T01:02:28;14.50;99.90
15819;DHT22;8010;53.986;12.106;2022-07-23T01:04:54;14.60;99.90
15819;DHT22;8010;53.986;12.106;2022-07-23T01:07:20;14.60;99.90
15819;DHT22;8010;53.986;12.106;2022-07-23T01:09:46;14.60;99.90
15819;DHT22;8010;53.986;12.106;2022-07-23T01:12:12;14.60;99.90
15819;DHT22;8010;53.986;12.106;2022-07-23T01:14:38;14.60;99.90
15819;DHT22;8010;53.986;12.106;2022-07-23T01:17:04;14.60;99.90
15819;DHT22;8010;53.986;12.106;2022-07-23T01:19:29;14.60;99.90
15819;DHT22;8010;53.986;12.106;2022-07-23T01:21:57;14.70;99.90
15819;DHT22;8010;53.986;12.106;2022-07-23T01:24:23;14.70;99.90
15819;DHT22;8010;53.986;12.106;2022-07-23T01:26:49;14.70;99.90
15819;DHT22;8010;53.986;12.106;2022-07-23T01:29:15;14.70;99.90
15819;DHT22;8010;53.986;12.106;2022-07-23T01:31:41;14.80;99.90
15819;DHT22;8010;53.986;12.106;2022-07-23T01:34:07;14.70;99.90
15819;DHT22;8010;53.986;12.106;2022-07-23T01:36:34;14.70;99.90
15819;DHT22;8010;53.986;12.106;2022-07-23T01:39:00;14.70;99.90
15819;DHT22;8010;53.986;12.106;2022-07-23T01:41:26;14.70;99.90
15819;DHT22;8010;53.986;12.106;2022-07-23T01:43:51;14.80;99.90
15819;DHT22;8010;53.986;12.106;2022-07-23T01:46:17;14.80;99.90
15819;DHT22;8010;53.986;12.106;2022-07-23T01:48:43;14.70;99.90
15819;DHT22;8010;53.986;12.106;2022-07-23T01:51:09;14.70;99.90
15819;DHT22;8010;53.986;12.106;2022-07-23T01:53:34;14.70;99.90
15819;DHT22;8010;53.986;12.106;2022-07-23T01:56:00;14.70;99.90
15819;DHT22;8010;53.986;12.106;2022-07-23T01:58:27;14.70;99.90
15819;DHT22;8010;53.986;12.106;2022-07-23T02:00:53;14.70;99.90
15819;DHT22;8010;53.986;12.106;2022-07-23T02:03:19;14.70;99.90
15819;DHT22;8010;53.986;12.106;2022-07-23T02:05:44;14.70;99.90
15819;DHT22;8010;53.986;12.106;2022-07-23T02:08:10;14.70;99.90
15819;DHT22;8010;53.986;12.106;2022-07-23T02:10:36;14.70;99.90
15819;DHT22;8010;53.986;12.106;2022-07-23T02:13:01;14.70;99.90
15819;DHT22;8010;53.986;12.106;2022-07-23T02:15:27;14.70;99.90
15819;DHT22;8010;53.986;12.106;2022-07-23T02:17:54;14.70;99.90
15819;DHT22;8010;53.986;12.106;2022-07-23T02:20:19;14.70;99.90
15819;DHT22;8010;53.986;12.106;2022-07-23T02:22:45;14.70;99.90
15819;DHT22;8010;53.986;12.106;2022-07-23T02:25:11;14.60;99.90
15819;DHT22;8010;53.986;12.106;2022-07-23T02:27:36;14.50;99.90
15819;DHT22;8010;53.986;12.106;2022-07-23T02:30:03;14.50;99.90
15819;DHT22;8010;53.986;12.106;2022-07-23T02:32:28;14.50;99.90
15819;DHT22;8010;53.986;12.106;2022-07-23T02:34:54;14.50;99.90
15819;DHT22;8010;53.986;12.106;2022-07-23T02:37:19;14.40;99.90
15819;DHT22;8010;53.986;12.106;2022-07-23T02:39:45;14.40;99.90
15819;DHT22;8010;53.986;12.106;2022-07-23T02:42:13;14.40;99.90
15819;DHT22;8010;53.986;12.106;2022-07-23T02:44:39;14.40;99.90
15819;DHT22;8010;53.986;12.106;2022-07-23T02:47:05;14.40;99.90
15819;DHT22;8010;53.986;12.106;2022-07-23T02:49:30;14.40;99.90
15819;DHT22;8010;53.986;12.106;2022-07-23T02:51:56;14.30;99.90
15819;DHT22;8010;53.986;12.106;2022-07-23T02:54:21;14.30;99.90
15819;DHT22;8010;53.986;12.106;2022-07-23T02:56:47;14.30;99.90
15819;DHT22;8010;53.986;12.106;2022-07-23T02:59:13;15.20;99.90
15819;DHT22;8010;53.986;12.106;2022-07-23T03:01:38;14.30;99.90
15819;DHT22;8010;53.986;12.106;2022-07-23T03:04:04;14.30;99.90
15819;DHT22;8010;53.986;12.106;2022-07-23T03:06:29;14.30;99.90
15819;DHT22;8010;53.986;12.106;2022-07-23T03:08:55;14.20;99.90
15819;DHT22;8010;53.986;12.106;2022-07-23T03:11:20;14.20;99.90
15819;DHT22;8010;53.986;12.106;2022-07-23T03:13:46;14.20;99.90
15819;DHT22;8010;53.986;12.106;2022-07-23T03:16:11;14.30;99.90
15819;DHT22;8010;53.986;12.106;2022-07-23T03:18:37;14.30;99.90
15819;DHT22;8010;53.986;12.106;2022-07-23T03:21:03;14.30;99.90
15819;DHT22;8010;53.986;12.106;2022-07-23T03:23:28;14.30;99.90
15819;DHT22;8010;53.986;12.106;2022-07-23T03:25:54;14.30;99.90
15819;DHT22;8010;53.986;12.106;2022-07-23T03:28:19;14.30;99.90
15819;DHT22;8010;53.986;12.106;2022-07-23T03:30:46;14.30;99.90
15819;DHT22;8010;53.986;12.106;2022-07-23T03:33:13;14.20;99.90
15819;DHT22;8010;53.986;12.106;2022-07-23T03:35:39;14.20;99.90
15819;DHT22;8010;53.986;12.106;2022-07-23T03:38:05;14.20;99.90
15819;DHT22;8010;53.986;12.106;2022-07-23T03:40:30;14.80;99.90
15819;DHT22;8010;53.986;12.106;2022-07-23T03:42:56;14.10;99.90
15819;DHT22;8010;53.986;12.106;2022-07-23T03:45:21;14.10;99.90
15819;DHT22;8010;53.986;12.106;2022-07-23T03:47:47;14.10;99.90
15819;DHT22;8010;53.986;12.106;2022-07-23T03:50:12;14.20;99.90
15819;DHT22;8010;53.986;12.106;2022-07-23T03:52:38;14.10;99.90
15819;DHT22;8010;53.986;12.106;2022-07-23T03:55:04;14.10;99.90
15819;DHT22;8010;53.986;12.106;2022-07-23T03:57:30;14.10;99.90
15819;DHT22;8010;53.986;12.106;2022-07-23T03:59:56;14.10;99.90
15819;DHT22;8010;53.986;12.106;2022-07-23T04:02:21;14.10;99.90
15819;DHT22;8010;53.986;12.106;2022-07-23T04:04:47;14.20;99.90
15819;DHT22;8010;53.986;12.106;2022-07-23T04:07:13;14.20;99.90
15819;DHT22;8010;53.986;12.106;2022-07-23T04:09:39;14.30;99.90
15819;DHT22;8010;53.986;12.106;2022-07-23T04:12:08;14.30;99.90
15819;DHT22;8010;53.986;12.106;2022-07-23T04:14:34;14.40;99.90
15819;DHT22;8010;53.986;12.106;2022-07-23T04:16:59;14.40;99.90
15819;DHT22;8010;53.986;12.106;2022-07-23T04:19:26;14.50;99.90
15819;DHT22;8010;53.986;12.106;2022-07-23T04:21:52;14.60;99.90
15819;DHT22;8010;53.986;12.106;2022-07-23T04:24:18;14.60;99.90
15819;DHT22;8010;53.986;12.106;2022-07-23T04:26:44;14.70;99.90
15819;DHT22;8010;53.986;12.106;2022-07-23T04:29:10;14.70;99.90
15819;DHT22;8010;53.986;12.106;2022-07-23T04:31:35;14.70;99.90
15819;DHT22;8010;53.986;12.106;2022-07-23T04:34:01;14.80;99.90
15819;DHT22;8010;53.986;12.106;2022-07-23T04:36:27;14.90;99.90
15819;DHT22;8010;53.986;12.106;2022-07-23T04:38:52;14.90;99.90
15819;DHT22;8010;53.986;12.106;2022-07-23T04:41:18;14.90;99.90
15819;DHT22;8010;53.986;12.106;2022-07-23T04:43:44;14.90;99.90
15819;DHT22;8010;53.986;12.106;2022-07-23T04:46:09;14.90;99.90
15819;DHT22;8010;53.986;12.106;2022-07-23T04:48:36;15.00;99.90
15819;DHT22;8010;53.986;12.106;2022-07-23T04:51:01;14.90;99.90
15819;DHT22;8010;53.986;12.106;2022-07-23T04:53:27;14.90;99.90
15819;DHT22;8010;53.986;12.106;2022-07-23T04:55:53;15.00;99.90
15819;DHT22;8010;53.986;12.106;2022-07-23T04:58:18;15.00;99.90
15819;DHT22;8010;53.986;12.106;2022-07-23T05:00:44;15.00;99.90
15819;DHT22;8010;53.986;12.106;2022-07-23T05:03:09;15.00;99.90
15819;DHT22;8010;53.986;12.106;2022-07-23T05:05:35;15.10;99.90
15819;DHT22;8010;53.986;12.106;2022-07-23T05:08:01;15.10;99.90
15819;DHT22;8010;53.986;12.106;2022-07-23T05:10:27;15.10;99.90
15819;DHT22;8010;53.986;12.106;2022-07-23T05:12:52;15.10;99.90
15819;DHT22;8010;53.986;12.106;2022-07-23T05:15:18;15.20;99.90
15819;DHT22;8010;53.986;12.106;2022-07-23T05:17:43;15.20;99.90
15819;DHT22;8010;53.986;12.106;2022-07-23T05:20:09;15.20;99.90
15819;DHT22;8010;53.986;12.106;2022-07-23T05:22:35;15.30;99.90
15819;DHT22;8010;53.986;12.106;2022-07-23T05:25:02;15.30;99.90
15819;DHT22;8010;53.986;12.106;2022-07-23T05:27:27;15.40;99.90
15819;DHT22;8010;53.986;12.106;2022-07-23T05:29:53;15.40;99.90
15819;DHT22;8010;53.986;12.106;2022-07-23T05:32:18;15.50;99.90
15819;DHT22;8010;53.986;12.106;2022-07-23T05:34:44;15.40;99.90
15819;DHT22;8010;53.986;12.106;2022-07-23T05:37:09;15.40;99.90
15819;DHT22;8010;53.986;12.106;2022-07-23T05:39:35;15.40;99.90
15819;DHT22;8010;53.986;12.106;2022-07-23T05:42:01;15.40;99.90
15819;DHT22;8010;53.986;12.106;2022-07-23T05:44:26;15.50;99.90
15819;DHT22;8010;53.986;12.106;2022-07-23T05:46:52;15.50;99.90
15819;DHT22;8010;53.986;12.106;2022-07-23T05:49:18;15.50;99.90
15819;DHT22;8010;53.986;12.106;2022-07-23T05:51:44;15.60;99.90
15819;DHT22;8010;53.986;12.106;2022-07-23T05:54:10;15.70;99.90
15819;DHT22;8010;53.986;12.106;2022-07-23T05:56:36;15.80;99.90
15819;DHT22;8010;53.986;12.106;2022-07-23T05:59:02;15.80;99.90
15819;DHT22;8010;53.986;12.106;2022-07-23T06:01:27;16.00;99.90
15819;DHT22;8010;53.986;12.106;2022-07-23T06:03:53;16.00;99.90
15819;DHT22;8010;53.986;12.106;2022-07-23T06:06:18;16.10;99.90
15819;DHT22;8010;53.986;12.106;2022-07-23T06:08:44;16.20;99.90
15819;DHT22;8010;53.986;12.106;2022-07-23T06:11:09;16.30;99.90
15819;DHT22;8010;53.986;12.106;2022-07-23T06:13:35;16.30;99.90
15819;DHT22;8010;53.986;12.106;2022-07-23T06:16:01;16.30;99.90
15819;DHT22;8010;53.986;12.106;2022-07-23T06:18:26;16.30;99.90
15819;DHT22;8010;53.986;12.106;2022-07-23T06:20:52;16.30;99.90
15819;DHT22;8010;53.986;12.106;2022-07-23T06:23:17;16.40;99.90
15819;DHT22;8010;53.986;12.106;2022-07-23T06:25:43;16.40;99.90
15819;DHT22;8010;53.986;12.106;2022-07-23T06:28:08;16.50;99.90
15819;DHT22;8010;53.986;12.106;2022-07-23T06:30:34;16.50;99.90
15819;DHT22;8010;53.986;12.106;2022-07-23T06:33:00;16.50;99.90
15819;DHT22;8010;53.986;12.106;2022-07-23T06:35:25;16.50;99.90
15819;DHT22;8010;53.986;12.106;2022-07-23T06:37:51;16.40;99.90
15819;DHT22;8010;53.986;12.106;2022-07-23T06:40:16;16.40;99.90
15819;DHT22;8010;53.986;12.106;2022-07-23T06:42:42;16.30;99.90
15819;DHT22;8010;53.986;12.106;2022-07-23T06:45:07;16.30;99.90
15819;DHT22;8010;53.986;12.106;2022-07-23T06:47:33;16.40;99.90
15819;DHT22;8010;53.986;12.106;2022-07-23T06:49:59;16.40;99.90
15819;DHT22;8010;53.986;12.106;2022-07-23T06:52:24;16.40;99.90
15819;DHT22;8010;53.986;12.106;2022-07-23T06:54:51;16.40;99.90
15819;DHT22;8010;53.986;12.106;2022-07-23T06:57:17;16.40;99.90
15819;DHT22;8010;53.986;12.106;2022-07-23T06:59:42;16.50;99.90
15819;DHT22;8010;53.986;12.106;2022-07-23T07:02:08;16.50;99.90
15819;DHT22;8010;53.986;12.106;2022-07-23T07:04:34;16.50;99.90
15819;DHT22;8010;53.986;12.106;2022-07-23T07:07:00;16.60;99.90
15819;DHT22;8010;53.986;12.106;2022-07-23T07:09:25;16.70;99.90
15819;DHT22;8010;53.986;12.106;2022-07-23T07:11:51;16.70;99.90
15819;DHT22;8010;53.986;12.106;2022-07-23T07:14:16;16.80;99.90
15819;DHT22;8010;53.986;12.106;2022-07-23T07:16:42;17.00;99.90
15819;DHT22;8010;53.986;12.106;2022-07-23T07:19:08;17.00;99.90
15819;DHT22;8010;53.986;12.106;2022-07-23T07:21:33;17.00;99.90
15819;DHT22;8010;53.986;12.106;2022-07-23T07:23:59;17.00;99.90
15819;DHT22;8010;53.986;12.106;2022-07-23T07:26:24;17.10;99.90
15819;DHT22;8010;53.986;12.106;2022-07-23T07:28:51;17.20;99.90
15819;DHT22;8010;53.986;12.106;2022-07-23T07:31:16;17.30;99.90
15819;DHT22;8010;53.986;12.106;2022-07-23T07:33:42;17.30;99.90
15819;DHT22;8010;53.986;12.106;2022-07-23T07:36:07;17.30;99.90
15819;DHT22;8010;53.986;12.106;2022-07-23T07:38:33;17.30;99.90
15819;DHT22;8010;53.986;12.106;2022-07-23T07:40:58;17.50;99.90
15819;DHT22;8010;53.986;12.106;2022-07-23T07:43:24;17.60;99.90
15819;DHT22;8010;53.986;12.106;2022-07-23T07:45:49;17.70;99.90
15819;DHT22;8010;53.986;12.106;2022-07-23T07:48:15;17.60;99.90
15819;DHT22;8010;53.986;12.106;2022-07-23T07:50:41;17.60;99.90
15819;DHT22;8010;53.986;12.106;2022-07-23T07:53:06;17.60;99.90
15819;DHT22;8010;53.986;12.106;2022-07-23T07:55:32;17.60;99.90
15819;DHT22;8010;53.986;12.106;2022-07-23T07:57:58;17.50;99.90
15819;DHT22;8010;53.986;12.106;2022-07-23T08:00:24;17.50;99.90
15819;DHT22;8010;53.986;12.106;2022-07-23T08:02:51;17.50;99.90
15819;DHT22;8010;53.986;12.106;2022-07-23T08:05:25;17.40;99.90
15819;DHT22;8010;53.986;12.106;2022-07-23T08:07:50;17.40;99.90
15819;DHT22;8010;53.986;12.106;2022-07-23T08:10:16;17.40;99.90
15819;DHT22;8010;53.986;12.106;2022-07-23T08:12:44;17.40;99.90
15819;DHT22;8010;53.986;12.106;2022-07-23T08:15:11;17.40;99.90
15819;DHT22;8010;53.986;12.106;2022-07-23T08:17:37;17.50;99.90
15819;DHT22;8010;53.986;12.106;2022-07-23T08:20:04;17.50;99.90
15819;DHT22;8010;53.986;12.106;2022-07-23T08:22:51;17.50;99.90
15819;DHT22;8010;53.986;12.106;2022-07-23T08:25:21;17.50;99.90
15819;DHT22;8010;53.986;12.106;2022-07-23T08:27:48;17.50;99.90
15819;DHT22;8010;53.986;12.106;2022-07-23T08:30:14;17.50;99.90
15819;DHT22;8010;53.986;12.106;2022-07-23T08:35:18;17.60;99.90
15819;DHT22;8010;53.986;12.106;2022-07-23T08:37:46;17.80;99.90
15819;DHT22;8010;53.986;12.106;2022-07-23T08:40:12;18.00;99.90
15819;DHT22;8010;53.986;12.106;2022-07-23T08:42:37;18.20;99.90
15819;DHT22;8010;53.986;12.106;2022-07-23T08:45:03;18.60;99.90
15819;DHT22;8010;53.986;12.106;2022-07-23T08:47:29;18.90;99.90
15819;DHT22;8010;53.986;12.106;2022-07-23T08:49:59;19.10;99.90
15819;DHT22;8010;53.986;12.106;2022-07-23T08:52:24;19.10;99.90
15819;DHT22;8010;53.986;12.106;2022-07-23T08:54:51;18.90;99.90
15819;DHT22;8010;53.986;12.106;2022-07-23T08:57:18;18.80;99.90
15819;DHT22;8010;53.986;12.106;2022-07-23T08:59:43;19.00;99.90
15819;DHT22;8010;53.986;12.106;2022-07-23T09:02:09;19.50;99.90
15819;DHT22;8010;53.986;12.106;2022-07-23T09:04:35;19.50;99.90
15819;DHT22;8010;53.986;12.106;2022-07-23T09:07:02;19.40;99.90
15819;DHT22;8010;53.986;12.106;2022-07-23T09:09:27;19.50;99.90
15819;DHT22;8010;53.986;12.106;2022-07-23T09:12:07;19.60;99.90
15819;DHT22;8010;53.986;12.106;2022-07-23T09:14:43;19.50;99.90
15819;DHT22;8010;53.986;12.106;2022-07-23T09:17:13;19.40;99.90
15819;DHT22;8010;53.986;12.106;2022-07-23T09:19:40;19.40;99.90
15819;DHT22;8010;53.986;12.106;2022-07-23T09:22:23;19.50;99.90
15819;DHT22;8010;53.986;12.106;2022-07-23T09:27:58;20.00;99.90
15819;DHT22;8010;53.986;12.106;2022-07-23T09:30:29;20.20;99.90
15819;DHT22;8010;53.986;12.106;2022-07-23T09:35:50;20.20;99.90
15819;DHT22;8010;53.986;12.106;2022-07-23T09:38:17;20.00;99.90
15819;DHT22;8010;53.986;12.106;2022-07-23T09:40:44;19.60;99.90
15819;DHT22;8010;53.986;12.106;2022-07-23T09:43:11;19.30;99.90
15819;DHT22;8010;53.986;12.106;2022-07-23T09:45:37;19.20;99.90
15819;DHT22;8010;53.986;12.106;2022-07-23T09:48:18;19.20;99.90
15819;DHT22;8010;53.986;12.106;2022-07-23T09:50:44;19.30;99.90
15819;DHT22;8010;53.986;12.106;2022-07-23T09:53:23;19.30;99.90
15819;DHT22;8010;53.986;12.106;2022-07-23T09:55:49;19.40;99.90
15819;DHT22;8010;53.986;12.106;2022-07-23T09:58:17;19.40;99.90
15819;DHT22;8010;53.986;12.106;2022-07-23T10:00:47;19.40;99.90
15819;DHT22;8010;53.986;12.106;2022-07-23T10:03:14;19.40;99.90
15819;DHT22;8010;53.986;12.106;2022-07-23T10:05:41;19.30;99.90
15819;DHT22;8010;53.986;12.106;2022-07-23T10:08:11;19.40;99.90
15819;DHT22;8010;53.986;12.106;2022-07-23T10:10:39;19.10;99.90
15819;DHT22;8010;53.986;12.106;2022-07-23T10:13:04;19.20;99.90
15819;DHT22;8010;53.986;12.106;2022-07-23T10:15:44;19.30;99.90
15819;DHT22;8010;53.986;12.106;2022-07-23T10:18:11;19.50;99.90
15819;DHT22;8010;53.986;12.106;2022-07-23T10:20:38;19.50;99.90
15819;DHT22;8010;53.986;12.106;2022-07-23T10:23:30;19.40;99.90
15819;DHT22;8010;53.986;12.106;2022-07-23T10:26:09;19.30;99.90
15819;DHT22;8010;53.986;12.106;2022-07-23T10:31:28;19.10;99.90
15819;DHT22;8010;53.986;12.106;2022-07-23T10:34:14;19.10;99.90
15819;DHT22;8010;53.986;12.106;2022-07-23T10:36:49;19.00;99.90
15819;DHT22;8010;53.986;12.106;2022-07-23T10:39:30;19.00;99.90
15819;DHT22;8010;53.986;12.106;2022-07-23T10:42:14;19.00;99.90
15819;DHT22;8010;53.986;12.106;2022-07-23T10:44:44;19.10;99.90
15819;DHT22;8010;53.986;12.106;2022-07-23T10:47:13;19.00;99.90
15819;DHT22;8010;53.986;12.106;2022-07-23T10:50:27;19.00;99.90
15819;DHT22;8010;53.986;12.106;2022-07-23T10:53:09;19.00;99.90
15819;DHT22;8010;53.986;12.106;2022-07-23T10:58:02;19.30;99.90
15819;DHT22;8010;53.986;12.106;2022-07-23T11:00:29;19.50;99.90
15819;DHT22;8010;53.986;12.106;2022-07-23T11:03:00;19.60;99.90
15819;DHT22;8010;53.986;12.106;2022-07-23T11:23:59;19.20;99.90
15819;DHT22;8010;53.986;12.106;2022-07-23T11:29:37;19.30;99.90
15819;DHT22;8010;53.986;12.106;2022-07-23T11:32:06;19.50;99.90
15819;DHT22;8010;53.986;12.106;2022-07-23T11:34:33;19.70;99.90
15819;DHT22;8010;53.986;12.106;2022-07-23T11:37:00;20.10;99.90
15819;DHT22;8010;53.986;12.106;2022-07-23T11:39:28;20.30;99.90
15819;DHT22;8010;53.986;12.106;2022-07-23T11:41:54;20.50;99.90
15819;DHT22;8010;53.986;12.106;2022-07-23T11:44:32;20.50;99.90
15819;DHT22;8010;53.986;12.106;2022-07-23T11:47:03;20.50;99.90
15819;DHT22;8010;53.986;12.106;2022-07-23T11:49:29;20.40;99.90
15819;DHT22;8010;53.986;12.106;2022-07-23T11:52:14;20.20;99.90
15819;DHT22;8010;53.986;12.106;2022-07-23T11:54:53;20.10;99.90
15819;DHT22;8010;53.986;12.106;2022-07-23T11:57:20;20.00;99.90
15819;DHT22;8010;53.986;12.106;2022-07-23T11:59:52;19.80;99.90
15819;DHT22;8010;53.986;12.106;2022-07-23T12:02:20;19.80;99.90
15819;DHT22;8010;53.986;12.106;2022-07-23T12:04:48;19.80;99.90
15819;DHT22;8010;53.986;12.106;2022-07-23T12:07:37;19.90;99.90
15819;DHT22;8010;53.986;12.106;2022-07-23T12:12:42;20.30;99.90
15819;DHT22;8010;53.986;12.106;2022-07-23T12:15:13;20.50;99.90
15819;DHT22;8010;53.986;12.106;2022-07-23T12:17:41;20.80;99.90
15819;DHT22;8010;53.986;12.106;2022-07-23T12:20:09;21.00;99.90
15819;DHT22;8010;53.986;12.106;2022-07-23T12:22:40;21.00;99.90
15819;DHT22;8010;53.986;12.106;2022-07-23T12:25:09;21.00;99.90
15819;DHT22;8010;53.986;12.106;2022-07-23T12:27:35;20.90;99.90
15819;DHT22;8010;53.986;12.106;2022-07-23T12:32:46;20.70;99.90
15819;DHT22;8010;53.986;12.106;2022-07-23T12:35:12;20.80;99.90
15819;DHT22;8010;53.986;12.106;2022-07-23T12:37:40;20.70;99.90
15819;DHT22;8010;53.986;12.106;2022-07-23T12:40:30;20.80;99.90
15819;DHT22;8010;53.986;12.106;2022-07-23T12:43:01;20.80;99.90
15819;DHT22;8010;53.986;12.106;2022-07-23T12:45:29;20.80;99.90
15819;DHT22;8010;53.986;12.106;2022-07-23T12:48:06;20.90;99.90
15819;DHT22;8010;53.986;12.106;2022-07-23T12:53:29;21.30;99.90
15819;DHT22;8010;53.986;12.106;2022-07-23T12:56:09;21.80;99.90
15819;DHT22;8010;53.986;12.106;2022-07-23T12:58:57;21.70;99.90
15819;DHT22;8010;53.986;12.106;2022-07-23T13:01:24;21.60;99.90
15819;DHT22;8010;53.986;12.106;2022-07-23T13:04:03;21.50;99.90
15819;DHT22;8010;53.986;12.106;2022-07-23T13:06:34;21.30;99.90
15819;DHT22;8010;53.986;12.106;2022-07-23T13:09:02;21.20;99.90
15819;DHT22;8010;53.986;12.106;2022-07-23T13:11:28;21.00;99.90
15819;DHT22;8010;53.986;12.106;2022-07-23T13:13:53;20.80;99.90
15819;DHT22;8010;53.986;12.106;2022-07-23T13:16:19;20.60;99.90
15819;DHT22;8010;53.986;12.106;2022-07-23T13:18:44;20.30;99.90
15819;DHT22;8010;53.986;12.106;2022-07-23T13:21:10;20.30;99.90
15819;DHT22;8010;53.986;12.106;2022-07-23T13:23:36;20.30;99.90
15819;DHT22;8010;53.986;12.106;2022-07-23T13:26:02;20.50;99.90
15819;DHT22;8010;53.986;12.106;2022-07-23T13:28:27;20.60;99.90
15819;DHT22;8010;53.986;12.106;2022-07-23T13:30:53;20.60;99.90
15819;DHT22;8010;53.986;12.106;2022-07-23T13:33:21;20.60;99.90
15819;DHT22;8010;53.986;12.106;2022-07-23T13:35:47;20.50;99.90
15819;DHT22;8010;53.986;12.106;2022-07-23T13:38:14;20.70;99.90
15819;DHT22;8010;53.986;12.106;2022-07-23T13:40:42;21.10;99.90
15819;DHT22;8010;53.986;12.106;2022-07-23T13:43:10;21.70;99.90
15819;DHT22;8010;53.986;12.106;2022-07-23T13:45:36;21.80;99.90
15819;DHT22;8010;53.986;12.106;2022-07-23T13:48:03;21.80;99.90
15819;DHT22;8010;53.986;12.106;2022-07-23T13:50:29;21.40;99.90
15819;DHT22;8010;53.986;12.106;2022-07-23T13:52:55;21.20;99.90
15819;DHT22;8010;53.986;12.106;2022-07-23T13:55:21;20.90;99.90
15819;DHT22;8010;53.986;12.106;2022-07-23T13:57:46;20.70;99.90
15819;DHT22;8010;53.986;12.106;2022-07-23T14:00:12;20.70;99.90
15819;DHT22;8010;53.986;12.106;2022-07-23T14:02:39;20.80;99.90
15819;DHT22;8010;53.986;12.106;2022-07-23T14:05:07;20.80;99.90
15819;DHT22;8010;53.986;12.106;2022-07-23T14:07:34;20.90;99.90
15819;DHT22;8010;53.986;12.106;2022-07-23T14:09:59;20.80;99.90
15819;DHT22;8010;53.986;12.106;2022-07-23T14:12:25;20.80;99.90
15819;DHT22;8010;53.986;12.106;2022-07-23T14:14:51;20.80;99.90
15819;DHT22;8010;53.986;12.106;2022-07-23T14:17:17;21.00;99.90
15819;DHT22;8010;53.986;12.106;2022-07-23T14:19:43;21.00;99.90
15819;DHT22;8010;53.986;12.106;2022-07-23T14:22:08;21.10;99.90
15819;DHT22;8010;53.986;12.106;2022-07-23T14:24:34;21.20;99.90
15819;DHT22;8010;53.986;12.106;2022-07-23T14:27:00;21.10;99.90
15819;DHT22;8010;53.986;12.106;2022-07-23T14:29:27;21.20;99.90
15819;DHT22;8010;53.986;12.106;2022-07-23T14:31:52;21.10;99.90
15819;DHT22;8010;53.986;12.106;2022-07-23T14:34:18;21.10;99.90
15819;DHT22;8010;53.986;12.106;2022-07-23T14:36:43;21.10;99.90
15819;DHT22;8010;53.986;12.106;2022-07-23T14:39:09;21.10;99.90
15819;DHT22;8010;53.986;12.106;2022-07-23T14:41:35;21.10;99.90
15819;DHT22;8010;53.986;12.106;2022-07-23T14:44:02;21.40;99.90
15819;DHT22;8010;53.986;12.106;2022-07-23T14:46:27;21.50;99.90
15819;DHT22;8010;53.986;12.106;2022-07-23T14:48:53;21.40;99.90
15819;DHT22;8010;53.986;12.106;2022-07-23T14:51:18;21.30;99.90
15819;DHT22;8010;53.986;12.106;2022-07-23T14:53:44;21.20;99.90
15819;DHT22;8010;53.986;12.106;2022-07-23T14:56:09;21.20;99.90
15819;DHT22;8010;53.986;12.106;2022-07-23T14:58:35;21.30;99.90
15819;DHT22;8010;53.986;12.106;2022-07-23T15:01:00;21.40;99.90
15819;DHT22;8010;53.986;12.106;2022-07-23T15:03:26;21.30;99.90
15819;DHT22;8010;53.986;12.106;2022-07-23T15:05:51;21.10;99.90
15819;DHT22;8010;53.986;12.106;2022-07-23T15:08:17;21.20;99.90
15819;DHT22;8010;53.986;12.106;2022-07-23T15:10:43;21.40;99.90
15819;DHT22;8010;53.986;12.106;2022-07-23T15:13:08;21.40;99.90
15819;DHT22;8010;53.986;12.106;2022-07-23T15:15:34;21.20;99.90
15819;DHT22;8010;53.986;12.106;2022-07-23T15:17:59;21.10;99.90
15819;DHT22;8010;53.986;12.106;2022-07-23T15:20:25;21.00;99.90
15819;DHT22;8010;53.986;12.106;2022-07-23T15:22:51;20.90;99.90
15819;DHT22;8010;53.986;12.106;2022-07-23T15:25:16;20.90;99.90
15819;DHT22;8010;53.986;12.106;2022-07-23T15:27:42;20.90;99.90
15819;DHT22;8010;53.986;12.106;2022-07-23T15:30:08;20.80;99.90
15819;DHT22;8010;53.986;12.106;2022-07-23T15:32:33;20.80;99.90
15819;DHT22;8010;53.986;12.106;2022-07-23T15:34:59;20.80;99.90
15819;DHT22;8010;53.986;12.106;2022-07-23T15:37:26;20.80;99.90
15819;DHT22;8010;53.986;12.106;2022-07-23T15:39:51;20.80;99.90
15819;DHT22;8010;53.986;12.106;2022-07-23T15:42:17;20.70;99.90
15819;DHT22;8010;53.986;12.106;2022-07-23T15:44:43;20.80;99.90
15819;DHT22;8010;53.986;12.106;2022-07-23T15:47:14;21.90;99.90
15819;DHT22;8010;53.986;12.106;2022-07-23T15:49:40;23.10;99.90
15819;DHT22;8010;53.986;12.106;2022-07-23T15:52:05;21.10;99.90
15819;DHT22;8010;53.986;12.106;2022-07-23T15:54:31;21.00;99.90
15819;DHT22;8010;53.986;12.106;2022-07-23T15:56:57;21.00;99.90
15819;DHT22;8010;53.986;12.106;2022-07-23T15:59:22;21.00;99.90
15819;DHT22;8010;53.986;12.106;2022-07-23T16:01:48;20.90;99.90
15819;DHT22;8010;53.986;12.106;2022-07-23T16:04:13;20.80;99.90
15819;DHT22;8010;53.986;12.106;2022-07-23T16:06:40;20.80;99.90
15819;DHT22;8010;53.986;12.106;2022-07-23T16:09:07;20.60;99.90
15819;DHT22;8010;53.986;12.106;2022-07-23T16:11:33;20.40;99.90
15819;DHT22;8010;53.986;12.106;2022-07-23T16:13:59;20.20;99.90